sensor_id;sensor_type;location;lat;lon;timestamp;pressure;altitude;pressure_sealevel;temperature;humidity
78888;BME280;68276;49.326;8.690;2024-03-02T00:01:58;99114.06;;;7.38;100.00
78888;BME280;68276;49.326;8.690;2024-03-02T00:04:24;99115.34;;;7.42;100.00
78888;BME280;68276;49.326;8.690;2024-03-02T00:06:52;99104.84;;;7.41;100.00
78888;BME280;68276;49.326;8.690;2024-03-02T00:09:20;99108.28;;;7.35;100.00
78888;BME280;68276;49.326;8.690;2024-03-02T00:11:45;99116.50;;;7.33;100.00
78888;BME280;68276;49.326;8.690;2024-03-02T00:14:11;99109.13;;;7.35;100.00
78888;BME280;68276;49.326;8.690;2024-03-02T00:16:37;99107.94;;;7.44;100.00
78888;BME280;68276;49.326;8.690;2024-03-02T00:19:03;99102.38;;;7.39;100.00
78888;BME280;68276;49.326;8.690;2024-03-02T00:21:31;99096.81;;;7.41;100.00
78888;BME280;68276;49.326;8.690;2024-03-02T00:23:56;99093.72;;;7.37;100.00
78888;BME280;68276;49.326;8.690;2024-03-02T00:26:23;99097.03;;;7.39;100.00
78888;BME280;68276;49.326;8.690;2024-03-02T00:28:48;99093.09;;;7.35;100.00
78888;BME280;68276;49.326;8.690;2024-03-02T00:31:15;99090.81;;;7.32;100.00
78888;BME280;68276;49.326;8.690;2024-03-02T00:33:46;99087.69;;;7.29;100.00
78888;BME280;68276;49.326;8.690;2024-03-02T00:36:15;99095.06;;;7.27;100.00
78888;BME280;68276;49.326;8.690;2024-03-02T00:38:48;99091.78;;;7.25;100.00
78888;BME280;68276;49.326;8.690;2024-03-02T00:44:09;99104.25;;;7.18;100.00
78888;BME280;68276;49.326;8.690;2024-03-02T00:46:40;99098.72;;;7.19;100.00
78888;BME280;68276;49.326;8.690;2024-03-02T00:49:19;99099.34;;;7.21;100.00
78888;BME280;68276;49.326;8.690;2024-03-02T00:51:47;99102.84;;;7.22;100.00
78888;BME280;68276;49.326;8.690;2024-03-02T00:54:14;99095.84;;;7.21;100.00
78888;BME280;68276;49.326;8.690;2024-03-02T00:56:41;99105.72;;;7.20;100.00
78888;BME280;68276;49.326;8.690;2024-03-02T00:59:07;99099.75;;;7.18;100.00
78888;BME280;68276;49.326;8.690;2024-03-02T01:01:34;99103.16;;;7.12;100.00
78888;BME280;68276;49.326;8.690;2024-03-02T01:04:00;99100.31;;;7.14;100.00
78888;BME280;68276;49.326;8.690;2024-03-02T01:06:25;99100.50;;;7.12;100.00
78888;BME280;68276;49.326;8.690;2024-03-02T01:08:51;99101.13;;;7.14;100.00
78888;BME280;68276;49.326;8.690;2024-03-02T01:11:17;99100.09;;;7.15;100.00
78888;BME280;68276;49.326;8.690;2024-03-02T01:13:43;99101.72;;;7.10;100.00
78888;BME280;68276;49.326;8.690;2024-03-02T01:16:08;99116.03;;;7.02;100.00
78888;BME280;68276;49.326;8.690;2024-03-02T01:18:34;99114.63;;;7.06;100.00
78888;BME280;68276;49.326;8.690;2024-03-02T01:20:59;99125.69;;;7.03;100.00
78888;BME280;68276;49.326;8.690;2024-03-02T01:23:25;99117.88;;;7.02;100.00
78888;BME280;68276;49.326;8.690;2024-03-02T01:25:51;99119.47;;;6.96;100.00
78888;BME280;68276;49.326;8.690;2024-03-02T01:28:18;99118.19;;;6.92;100.00
78888;BME280;68276;49.326;8.690;2024-03-02T01:30:44;99125.97;;;6.87;100.00
78888;BME280;68276;49.326;8.690;2024-03-02T01:33:10;99127.59;;;6.88;100.00
78888;BME280;68276;49.326;8.690;2024-03-02T01:35:36;99114.91;;;6.90;100.00
78888;BME280;68276;49.326;8.690;2024-03-02T01:38:02;99115.53;;;6.92;100.00
78888;BME280;68276;49.326;8.690;2024-03-02T01:40:28;99116.63;;;6.97;100.00
78888;BME280;68276;49.326;8.690;2024-03-02T01:42:54;99113.69;;;6.92;100.00
78888;BME280;68276;49.326;8.690;2024-03-02T01:45:20;99107.53;;;6.92;100.00
78888;BME280;68276;49.326;8.690;2024-03-02T01:47:46;99106.94;;;6.96;100.00
78888;BME280;68276;49.326;8.690;2024-03-02T01:50:11;99099.31;;;6.93;100.00
78888;BME280;68276;49.326;8.690;2024-03-02T01:52:37;99104.22;;;6.90;100.00
78888;BME280;68276;49.326;8.690;2024-03-02T01:55:03;99096.47;;;6.95;100.00
78888;BME280;68276;49.326;8.690;2024-03-02T01:57:29;99089.91;;;6.97;100.00
78888;BME280;68276;49.326;8.690;2024-03-02T01:59:55;99086.63;;;6.95;100.00
78888;BME280;68276;49.326;8.690;2024-03-02T02:02:21;99089.69;;;6.92;100.00
78888;BME280;68276;49.326;8.690;2024-03-02T02:04:46;99086.63;;;6.95;100.00
78888;BME280;68276;49.326;8.690;2024-03-02T02:07:12;99079.16;;;6.91;100.00
78888;BME280;68276;49.326;8.690;2024-03-02T02:09:40;99080.59;;;6.87;100.00
78888;BME280;68276;49.326;8.690;2024-03-02T02:12:06;99074.22;;;6.88;100.00
78888;BME280;68276;49.326;8.690;2024-03-02T02:14:33;99075.44;;;6.85;100.00
78888;BME280;68276;49.326;8.690;2024-03-02T02:16:59;99071.31;;;6.83;100.00
78888;BME280;68276;49.326;8.690;2024-03-02T02:19:24;99076.25;;;6.86;100.00
78888;BME280;68276;49.326;8.690;2024-03-02T02:21:49;99068.63;;;6.83;100.00
78888;BME280;68276;49.326;8.690;2024-03-02T02:24:15;99065.31;;;6.81;100.00
78888;BME280;68276;49.326;8.690;2024-03-02T02:26:40;99059.59;;;6.84;100.00
78888;BME280;68276;49.326;8.690;2024-03-02T02:29:05;99062.44;;;6.82;100.00
78888;BME280;68276;49.326;8.690;2024-03-02T02:31:41;99064.31;;;6.82;100.00
78888;BME280;68276;49.326;8.690;2024-03-02T02:34:07;99054.84;;;6.79;100.00
78888;BME280;68276;49.326;8.690;2024-03-02T02:36:33;99056.88;;;6.77;100.00
78888;BME280;68276;49.326;8.690;2024-03-02T02:39:02;99057.06;;;6.76;100.00
78888;BME280;68276;49.326;8.690;2024-03-02T02:41:29;99053.56;;;6.75;100.00
78888;BME280;68276;49.326;8.690;2024-03-02T02:43:55;99062.53;;;6.68;100.00
78888;BME280;68276;49.326;8.690;2024-03-02T02:46:20;99059.50;;;6.71;100.00
78888;BME280;68276;49.326;8.690;2024-03-02T02:48:46;99060.88;;;6.67;100.00
78888;BME280;68276;49.326;8.690;2024-03-02T02:51:12;99049.56;;;6.65;100.00
78888;BME280;68276;49.326;8.690;2024-03-02T02:53:37;99043.63;;;6.63;100.00
78888;BME280;68276;49.326;8.690;2024-03-02T02:56:06;99040.75;;;6.64;100.00
78888;BME280;68276;49.326;8.690;2024-03-02T02:58:31;99041.94;;;6.62;100.00
78888;BME280;68276;49.326;8.690;2024-03-02T03:00:56;99045.22;;;6.57;100.00
78888;BME280;68276;49.326;8.690;2024-03-02T03:03:22;99044.19;;;6.58;100.00
78888;BME280;68276;49.326;8.690;2024-03-02T03:05:48;99041.06;;;6.55;100.00
78888;BME280;68276;49.326;8.690;2024-03-02T03:08:14;99033.50;;;6.58;100.00
78888;BME280;68276;49.326;8.690;2024-03-02T03:10:41;99036.16;;;6.58;100.00
78888;BME280;68276;49.326;8.690;2024-03-02T03:13:06;99033.31;;;6.60;100.00
78888;BME280;68276;49.326;8.690;2024-03-02T03:15:33;99047.69;;;6.59;100.00
78888;BME280;68276;49.326;8.690;2024-03-02T03:17:59;99034.47;;;6.51;100.00
78888;BME280;68276;49.326;8.690;2024-03-02T03:20:24;99040.06;;;6.56;100.00
78888;BME280;68276;49.326;8.690;2024-03-02T03:22:50;99042.28;;;6.52;100.00
78888;BME280;68276;49.326;8.690;2024-03-02T03:25:15;99025.06;;;6.55;100.00
78888;BME280;68276;49.326;8.690;2024-03-02T03:27:41;99026.34;;;6.59;100.00
78888;BME280;68276;49.326;8.690;2024-03-02T03:30:07;99032.06;;;6.56;100.00
78888;BME280;68276;49.326;8.690;2024-03-02T03:32:32;99029.16;;;6.51;100.00
78888;BME280;68276;49.326;8.690;2024-03-02T03:34:58;99033.41;;;6.45;100.00
78888;BME280;68276;49.326;8.690;2024-03-02T03:37:23;99031.72;;;6.44;100.00
78888;BME280;68276;49.326;8.690;2024-03-02T03:39:49;99029.63;;;6.40;100.00
78888;BME280;68276;49.326;8.690;2024-03-02T03:42:14;99023.66;;;6.38;100.00
78888;BME280;68276;49.326;8.690;2024-03-02T03:44:40;99031.28;;;6.41;100.00
78888;BME280;68276;49.326;8.690;2024-03-02T03:47:06;99028.25;;;6.44;100.00
78888;BME280;68276;49.326;8.690;2024-03-02T03:49:32;99021.25;;;6.43;100.00
78888;BME280;68276;49.326;8.690;2024-03-02T03:51:57;99016.69;;;6.37;100.00
78888;BME280;68276;49.326;8.690;2024-03-02T03:54:24;99014.38;;;6.34;100.00
78888;BME280;68276;49.326;8.690;2024-03-02T03:56:49;99013.78;;;6.32;100.00
78888;BME280;68276;49.326;8.690;2024-03-02T03:59:15;99020.56;;;6.34;100.00
78888;BME280;68276;49.326;8.690;2024-03-02T04:01:40;99019.47;;;6.29;100.00
78888;BME280;68276;49.326;8.690;2024-03-02T04:04:06;99013.13;;;6.30;100.00
78888;BME280;68276;49.326;8.690;2024-03-02T04:06:32;99026.91;;;6.33;100.00
78888;BME280;68276;49.326;8.690;2024-03-02T04:08:57;99020.34;;;6.36;100.00
78888;BME280;68276;49.326;8.690;2024-03-02T04:11:23;99016.69;;;6.37;100.00
78888;BME280;68276;49.326;8.690;2024-03-02T04:13:48;99030.91;;;6.44;100.00
78888;BME280;68276;49.326;8.690;2024-03-02T04:16:13;99019.59;;;6.42;100.00
78888;BME280;68276;49.326;8.690;2024-03-02T04:18:39;99023.13;;;6.42;100.00
78888;BME280;68276;49.326;8.690;2024-03-02T04:21:05;99029.50;;;6.48;100.00
78888;BME280;68276;49.326;8.690;2024-03-02T04:23:30;99027.28;;;6.51;100.00
78888;BME280;68276;49.326;8.690;2024-03-02T04:25:55;99034.03;;;6.47;100.00
78888;BME280;68276;49.326;8.690;2024-03-02T04:28:21;99032.38;;;6.46;100.00
78888;BME280;68276;49.326;8.690;2024-03-02T04:30:46;99026.84;;;6.48;100.00
78888;BME280;68276;49.326;8.690;2024-03-02T04:33:12;99023.63;;;6.52;100.00
78888;BME280;68276;49.326;8.690;2024-03-02T04:35:37;99027.09;;;6.53;100.00
78888;BME280;68276;49.326;8.690;2024-03-02T04:38:03;99028.56;;;6.55;100.00
78888;BME280;68276;49.326;8.690;2024-03-02T04:40:28;99026.72;;;6.56;100.00
78888;BME280;68276;49.326;8.690;2024-03-02T04:42:53;99031.53;;;6.67;100.00
78888;BME280;68276;49.326;8.690;2024-03-02T04:45:19;99018.56;;;6.64;100.00
78888;BME280;68276;49.326;8.690;2024-03-02T04:47:44;99028.38;;;6.57;100.00
78888;BME280;68276;49.326;8.690;2024-03-02T04:50:10;99039.63;;;6.52;100.00
78888;BME280;68276;49.326;8.690;2024-03-02T04:52:35;99039.81;;;6.51;100.00
78888;BME280;68276;49.326;8.690;2024-03-02T04:55:01;99028.59;;;6.41;100.00
78888;BME280;68276;49.326;8.690;2024-03-02T04:58:00;99030.97;;;6.29;100.00
78888;BME280;68276;49.326;8.690;2024-03-02T05:00:25;99033.56;;;6.23;100.00
78888;BME280;68276;49.326;8.690;2024-03-02T05:02:51;99032.09;;;6.20;100.00
78888;BME280;68276;49.326;8.690;2024-03-02T05:05:16;99028.03;;;6.24;100.00
78888;BME280;68276;49.326;8.690;2024-03-02T05:07:42;99040.81;;;6.29;100.00
78888;BME280;68276;49.326;8.690;2024-03-02T05:10:09;99033.50;;;6.37;100.00
78888;BME280;68276;49.326;8.690;2024-03-02T05:12:34;99049.59;;;6.44;100.00
78888;BME280;68276;49.326;8.690;2024-03-02T05:15:20;99049.94;;;6.41;100.00
78888;BME280;68276;49.326;8.690;2024-03-02T05:17:46;99051.00;;;6.25;100.00
78888;BME280;68276;49.326;8.690;2024-03-02T05:20:12;99063.28;;;6.20;100.00
78888;BME280;68276;49.326;8.690;2024-03-02T05:22:38;99059.59;;;6.21;100.00
78888;BME280;68276;49.326;8.690;2024-03-02T05:25:05;99055.91;;;6.22;100.00
78888;BME280;68276;49.326;8.690;2024-03-02T05:27:30;99057.56;;;6.23;100.00
78888;BME280;68276;49.326;8.690;2024-03-02T05:29:58;99065.97;;;6.20;100.00
78888;BME280;68276;49.326;8.690;2024-03-02T05:32:23;99060.78;;;6.18;100.00
78888;BME280;68276;49.326;8.690;2024-03-02T05:34:51;99064.28;;;6.19;100.00
78888;BME280;68276;49.326;8.690;2024-03-02T05:37:17;99064.94;;;6.21;100.00
78888;BME280;68276;49.326;8.690;2024-03-02T05:39:42;99071.28;;;6.20;100.00
78888;BME280;68276;49.326;8.690;2024-03-02T05:42:09;99068.16;;;6.16;100.00
78888;BME280;68276;49.326;8.690;2024-03-02T05:44:35;99077.63;;;6.19;100.00
78888;BME280;68276;49.326;8.690;2024-03-02T05:47:00;99072.28;;;6.19;100.00
78888;BME280;68276;49.326;8.690;2024-03-02T05:49:26;99076.44;;;6.21;100.00
78888;BME280;68276;49.326;8.690;2024-03-02T05:51:51;99083.78;;;6.19;100.00
78888;BME280;68276;49.326;8.690;2024-03-02T05:54:17;99082.31;;;6.17;100.00
78888;BME280;68276;49.326;8.690;2024-03-02T05:56:42;99083.25;;;6.09;100.00
78888;BME280;68276;49.326;8.690;2024-03-02T05:59:07;99079.38;;;6.12;100.00
78888;BME280;68276;49.326;8.690;2024-03-02T06:01:43;99068.44;;;6.07;100.00
78888;BME280;68276;49.326;8.690;2024-03-02T06:04:10;99068.25;;;6.08;100.00
78888;BME280;68276;49.326;8.690;2024-03-02T06:06:38;99063.69;;;6.02;100.00
78888;BME280;68276;49.326;8.690;2024-03-02T06:09:04;99059.38;;;6.01;100.00
78888;BME280;68276;49.326;8.690;2024-03-02T06:11:40;99064.50;;;6.03;100.00
78888;BME280;68276;49.326;8.690;2024-03-02T06:14:09;99068.13;;;5.95;100.00
78888;BME280;68276;49.326;8.690;2024-03-02T06:16:34;99064.63;;;5.95;100.00
78888;BME280;68276;49.326;8.690;2024-03-02T06:19:00;99064.34;;;5.90;100.00
78888;BME280;68276;49.326;8.690;2024-03-02T06:21:27;99071.25;;;5.99;100.00
78888;BME280;68276;49.326;8.690;2024-03-02T06:23:52;99081.91;;;5.99;100.00
78888;BME280;68276;49.326;8.690;2024-03-02T06:26:18;99093.94;;;5.95;100.00
78888;BME280;68276;49.326;8.690;2024-03-02T06:28:45;99086.97;;;5.94;100.00
78888;BME280;68276;49.326;8.690;2024-03-02T06:31:10;99087.63;;;5.96;100.00
78888;BME280;68276;49.326;8.690;2024-03-02T06:33:36;99087.22;;;5.99;100.00
78888;BME280;68276;49.326;8.690;2024-03-02T06:36:02;99084.44;;;6.07;100.00
78888;BME280;68276;49.326;8.690;2024-03-02T06:38:28;99096.13;;;6.06;100.00
78888;BME280;68276;49.326;8.690;2024-03-02T06:40:53;99091.53;;;6.00;100.00
78888;BME280;68276;49.326;8.690;2024-03-02T06:43:20;99092.56;;;5.99;100.00
78888;BME280;68276;49.326;8.690;2024-03-02T06:45:49;99096.88;;;6.00;100.00
78888;BME280;68276;49.326;8.690;2024-03-02T06:48:14;99092.00;;;6.03;100.00
78888;BME280;68276;49.326;8.690;2024-03-02T06:50:43;99081.97;;;6.05;100.00
78888;BME280;68276;49.326;8.690;2024-03-02T06:53:09;99093.94;;;6.09;100.00
78888;BME280;68276;49.326;8.690;2024-03-02T06:55:34;99093.75;;;6.11;100.00
78888;BME280;68276;49.326;8.690;2024-03-02T06:58:00;99094.84;;;6.16;100.00
78888;BME280;68276;49.326;8.690;2024-03-02T07:00:25;99091.16;;;6.17;100.00
78888;BME280;68276;49.326;8.690;2024-03-02T07:02:52;99097.31;;;6.18;100.00
78888;BME280;68276;49.326;8.690;2024-03-02T07:05:17;99097.66;;;6.15;100.00
78888;BME280;68276;49.326;8.690;2024-03-02T07:07:42;99088.72;;;6.22;100.00
78888;BME280;68276;49.326;8.690;2024-03-02T07:10:08;99099.00;;;6.25;100.00
78888;BME280;68276;49.326;8.690;2024-03-02T07:12:34;99092.50;;;6.28;100.00
78888;BME280;68276;49.326;8.690;2024-03-02T07:14:59;99100.25;;;6.23;100.00
78888;BME280;68276;49.326;8.690;2024-03-02T07:17:27;99094.06;;;6.22;100.00
78888;BME280;68276;49.326;8.690;2024-03-02T07:19:53;99096.53;;;6.24;100.00
78888;BME280;68276;49.326;8.690;2024-03-02T07:22:19;99097.00;;;6.27;100.00
78888;BME280;68276;49.326;8.690;2024-03-02T07:24:44;99095.16;;;6.28;100.00
78888;BME280;68276;49.326;8.690;2024-03-02T07:27:12;99102.03;;;6.37;100.00
78888;BME280;68276;49.326;8.690;2024-03-02T07:29:38;99103.22;;;6.34;100.00
78888;BME280;68276;49.326;8.690;2024-03-02T07:32:04;99105.34;;;6.39;100.00
78888;BME280;68276;49.326;8.690;2024-03-02T07:34:30;99112.19;;;6.48;100.00
78888;BME280;68276;49.326;8.690;2024-03-02T07:36:55;99114.06;;;6.47;100.00
78888;BME280;68276;49.326;8.690;2024-03-02T07:39:21;99119.84;;;6.51;100.00
78888;BME280;68276;49.326;8.690;2024-03-02T07:41:47;99113.75;;;6.57;100.00
78888;BME280;68276;49.326;8.690;2024-03-02T07:44:13;99107.28;;;6.66;100.00
78888;BME280;68276;49.326;8.690;2024-03-02T07:46:42;99110.19;;;6.71;100.00
78888;BME280;68276;49.326;8.690;2024-03-02T07:49:08;99110.63;;;6.74;100.00
78888;BME280;68276;49.326;8.690;2024-03-02T07:51:34;99109.56;;;6.90;100.00
78888;BME280;68276;49.326;8.690;2024-03-02T07:53:59;99116.09;;;6.87;100.00
78888;BME280;68276;49.326;8.690;2024-03-02T07:56:26;99106.38;;;7.01;100.00
78888;BME280;68276;49.326;8.690;2024-03-02T07:58:53;99110.19;;;7.13;100.00
78888;BME280;68276;49.326;8.690;2024-03-02T08:01:20;99119.31;;;7.25;100.00
78888;BME280;68276;49.326;8.690;2024-03-02T08:03:45;99120.88;;;7.41;98.30
78888;BME280;68276;49.326;8.690;2024-03-02T08:06:16;99127.53;;;7.51;97.49
78888;BME280;68276;49.326;8.690;2024-03-02T08:08:42;99125.34;;;7.61;95.96
78888;BME280;68276;49.326;8.690;2024-03-02T08:11:07;99113.69;;;7.75;95.41
78888;BME280;68276;49.326;8.690;2024-03-02T08:13:33;99118.25;;;7.81;94.72
78888;BME280;68276;49.326;8.690;2024-03-02T08:15:58;99114.41;;;7.90;93.17
78888;BME280;68276;49.326;8.690;2024-03-02T08:18:24;99124.66;;;7.87;94.80
78888;BME280;68276;49.326;8.690;2024-03-02T08:20:50;99122.66;;;7.95;94.16
78888;BME280;68276;49.326;8.690;2024-03-02T08:23:15;99125.78;;;8.05;93.16
78888;BME280;68276;49.326;8.690;2024-03-02T08:25:42;99124.81;;;8.20;91.89
78888;BME280;68276;49.326;8.690;2024-03-02T08:28:07;99131.91;;;8.34;91.12
78888;BME280;68276;49.326;8.690;2024-03-02T08:30:32;99133.19;;;8.51;90.22
78888;BME280;68276;49.326;8.690;2024-03-02T08:32:58;99134.50;;;8.74;88.64
78888;BME280;68276;49.326;8.690;2024-03-02T08:35:23;99137.81;;;8.83;88.85
78888;BME280;68276;49.326;8.690;2024-03-02T08:37:48;99127.53;;;8.86;87.16
78888;BME280;68276;49.326;8.690;2024-03-02T08:40:14;99131.25;;;9.05;85.48
78888;BME280;68276;49.326;8.690;2024-03-02T08:42:40;99121.59;;;9.17;84.94
78888;BME280;68276;49.326;8.690;2024-03-02T08:45:07;99127.97;;;9.22;84.13
78888;BME280;68276;49.326;8.690;2024-03-02T08:47:32;99117.47;;;9.27;83.78
78888;BME280;68276;49.326;8.690;2024-03-02T08:49:59;99118.69;;;9.25;84.23
78888;BME280;68276;49.326;8.690;2024-03-02T08:52:25;99122.00;;;9.20;84.24
78888;BME280;68276;49.326;8.690;2024-03-02T08:54:50;99115.59;;;9.15;83.71
78888;BME280;68276;49.326;8.690;2024-03-02T08:57:15;99123.66;;;9.28;83.38
78888;BME280;68276;49.326;8.690;2024-03-02T08:59:41;99125.28;;;9.16;83.02
78888;BME280;68276;49.326;8.690;2024-03-02T09:02:07;99128.56;;;9.44;85.00
78888;BME280;68276;49.326;8.690;2024-03-02T09:04:33;99134.16;;;9.36;82.17
78888;BME280;68276;49.326;8.690;2024-03-02T09:06:58;99134.56;;;9.26;82.18
78888;BME280;68276;49.326;8.690;2024-03-02T09:09:24;99119.91;;;9.42;84.47
78888;BME280;68276;49.326;8.690;2024-03-02T09:11:49;99124.03;;;9.51;81.73
78888;BME280;68276;49.326;8.690;2024-03-02T09:14:15;99111.47;;;9.45;80.52
78888;BME280;68276;49.326;8.690;2024-03-02T09:16:40;99102.56;;;9.71;80.17
78888;BME280;68276;49.326;8.690;2024-03-02T09:19:06;99110.59;;;9.77;78.85
78888;BME280;68276;49.326;8.690;2024-03-02T09:21:31;99103.38;;;9.78;79.25
78888;BME280;68276;49.326;8.690;2024-03-02T09:23:57;99107.09;;;9.70;78.75
78888;BME280;68276;49.326;8.690;2024-03-02T09:26:22;99103.59;;;9.76;78.94
78888;BME280;68276;49.326;8.690;2024-03-02T09:28:50;99098.84;;;9.78;78.89
78888;BME280;68276;49.326;8.690;2024-03-02T09:31:15;99094.06;;;9.80;79.11
78888;BME280;68276;49.326;8.690;2024-03-02T09:33:41;99093.22;;;9.93;78.70
78888;BME280;68276;49.326;8.690;2024-03-02T09:36:17;99102.94;;;9.94;78.17
78888;BME280;68276;49.326;8.690;2024-03-02T09:38:42;99100.63;;;10.10;77.82
78888;BME280;68276;49.326;8.690;2024-03-02T09:41:08;99109.84;;;10.27;76.88
78888;BME280;68276;49.326;8.690;2024-03-02T09:43:34;99119.13;;;10.31;76.06
78888;BME280;68276;49.326;8.690;2024-03-02T09:45:59;99115.31;;;10.52;74.36
78888;BME280;68276;49.326;8.690;2024-03-02T09:48:25;99116.53;;;10.56;74.55
78888;BME280;68276;49.326;8.690;2024-03-02T09:50:50;99109.66;;;10.60;75.00
78888;BME280;68276;49.326;8.690;2024-03-02T09:53:16;99116.84;;;10.73;74.90
78888;BME280;68276;49.326;8.690;2024-03-02T09:55:46;99112.81;;;10.88;74.61
78888;BME280;68276;49.326;8.690;2024-03-02T09:58:12;99099.00;;;10.85;74.56
78888;BME280;68276;49.326;8.690;2024-03-02T10:00:37;99102.72;;;10.84;76.05
78888;BME280;68276;49.326;8.690;2024-03-02T10:03:03;99108.34;;;11.07;74.84
78888;BME280;68276;49.326;8.690;2024-03-02T10:05:30;99101.22;;;11.19;74.37
78888;BME280;68276;49.326;8.690;2024-03-02T10:08:01;99102.75;;;11.33;73.21
78888;BME280;68276;49.326;8.690;2024-03-02T10:10:38;99096.81;;;11.49;71.87
78888;BME280;68276;49.326;8.690;2024-03-02T10:13:12;99094.59;;;11.46;71.85
78888;BME280;68276;49.326;8.690;2024-03-02T10:15:39;99101.25;;;11.62;71.44
78888;BME280;68276;49.326;8.690;2024-03-02T10:18:12;99097.97;;;11.60;72.01
78888;BME280;68276;49.326;8.690;2024-03-02T10:20:38;99100.06;;;11.57;70.69
78888;BME280;68276;49.326;8.690;2024-03-02T10:23:11;99095.94;;;11.55;72.35
78888;BME280;68276;49.326;8.690;2024-03-02T10:25:37;99093.91;;;11.50;71.57
78888;BME280;68276;49.326;8.690;2024-03-02T10:28:03;99086.44;;;11.52;71.81
78888;BME280;68276;49.326;8.690;2024-03-02T10:30:31;99082.25;;;11.81;72.81
78888;BME280;68276;49.326;8.690;2024-03-02T10:32:57;99082.38;;;11.86;70.66
78888;BME280;68276;49.326;8.690;2024-03-02T10:35:22;99088.53;;;11.93;71.85
78888;BME280;68276;49.326;8.690;2024-03-02T10:37:50;99089.44;;;11.87;71.49
78888;BME280;68276;49.326;8.690;2024-03-02T10:40:16;99092.09;;;12.05;70.49
78888;BME280;68276;49.326;8.690;2024-03-02T10:42:42;99085.19;;;11.98;69.59
78888;BME280;68276;49.326;8.690;2024-03-02T10:45:09;99077.03;;;12.04;69.64
78888;BME280;68276;49.326;8.690;2024-03-02T10:47:37;99088.22;;;12.19;69.20
78888;BME280;68276;49.326;8.690;2024-03-02T10:50:04;99085.16;;;12.16;69.35
78888;BME280;68276;49.326;8.690;2024-03-02T10:52:36;99082.09;;;12.12;69.44
78888;BME280;68276;49.326;8.690;2024-03-02T10:55:02;99077.44;;;12.37;68.60
78888;BME280;68276;49.326;8.690;2024-03-02T10:57:53;99083.50;;;12.62;68.41
78888;BME280;68276;49.326;8.690;2024-03-02T11:00:20;99083.69;;;12.79;67.36
78888;BME280;68276;49.326;8.690;2024-03-02T11:02:52;99075.88;;;13.01;67.01
78888;BME280;68276;49.326;8.690;2024-03-02T11:05:26;99072.03;;;12.97;67.94
78888;BME280;68276;49.326;8.690;2024-03-02T11:08:00;99084.78;;;12.90;67.19
78888;BME280;68276;49.326;8.690;2024-03-02T11:10:36;99075.72;;;13.14;67.76
78888;BME280;68276;49.326;8.690;2024-03-02T11:13:05;99073.03;;;13.14;67.69
78888;BME280;68276;49.326;8.690;2024-03-02T11:15:34;99069.06;;;13.28;65.29
78888;BME280;68276;49.326;8.690;2024-03-02T11:18:04;99069.63;;;13.30;65.04
78888;BME280;68276;49.326;8.690;2024-03-02T11:20:37;99067.19;;;13.40;65.15
78888;BME280;68276;49.326;8.690;2024-03-02T11:23:07;99061.22;;;13.38;64.73
78888;BME280;68276;49.326;8.690;2024-03-02T11:25:33;99062.38;;;13.30;65.51
78888;BME280;68276;49.326;8.690;2024-03-02T11:28:00;99057.09;;;13.35;65.26
78888;BME280;68276;49.326;8.690;2024-03-02T11:32:57;99044.88;;;13.56;63.84
78888;BME280;68276;49.326;8.690;2024-03-02T11:35:25;99029.28;;;13.58;64.03
78888;BME280;68276;49.326;8.690;2024-03-02T11:37:51;99028.34;;;13.64;63.80
78888;BME280;68276;49.326;8.690;2024-03-02T11:40:21;99021.97;;;13.93;62.82
78888;BME280;68276;49.326;8.690;2024-03-02T11:42:47;99022.66;;;14.00;62.83
78888;BME280;68276;49.326;8.690;2024-03-02T11:45:16;99013.03;;;14.04;62.52
78888;BME280;68276;49.326;8.690;2024-03-02T11:47:46;99007.72;;;13.98;63.23
78888;BME280;68276;49.326;8.690;2024-03-02T11:50:15;99003.91;;;13.82;63.54
78888;BME280;68276;49.326;8.690;2024-03-02T11:52:41;99004.13;;;13.92;61.93
78888;BME280;68276;49.326;8.690;2024-03-02T11:55:08;98997.16;;;14.08;62.23
78888;BME280;68276;49.326;8.690;2024-03-02T11:57:35;98993.81;;;14.17;62.11
78888;BME280;68276;49.326;8.690;2024-03-02T12:00:00;98996.13;;;14.25;62.96
78888;BME280;68276;49.326;8.690;2024-03-02T12:02:28;98996.84;;;14.21;61.38
78888;BME280;68276;49.326;8.690;2024-03-02T12:04:54;98988.72;;;14.32;61.63
78888;BME280;68276;49.326;8.690;2024-03-02T12:07:22;98995.56;;;14.23;61.05
78888;BME280;68276;49.326;8.690;2024-03-02T12:09:49;98984.91;;;14.28;60.70
78888;BME280;68276;49.326;8.690;2024-03-02T12:12:15;98992.59;;;14.36;61.25
78888;BME280;68276;49.326;8.690;2024-03-02T12:14:52;98983.38;;;14.49;60.23
78888;BME280;68276;49.326;8.690;2024-03-02T12:17:20;98972.91;;;14.52;60.39
78888;BME280;68276;49.326;8.690;2024-03-02T12:19:45;98966.84;;;14.45;60.78
78888;BME280;68276;49.326;8.690;2024-03-02T12:22:11;98972.25;;;14.62;60.14
78888;BME280;68276;49.326;8.690;2024-03-02T12:24:37;98968.41;;;14.74;59.78
78888;BME280;68276;49.326;8.690;2024-03-02T12:27:04;98966.03;;;14.78;60.19
78888;BME280;68276;49.326;8.690;2024-03-02T12:29:30;98973.09;;;14.96;58.64
78888;BME280;68276;49.326;8.690;2024-03-02T12:31:56;98964.91;;;14.90;58.24
78888;BME280;68276;49.326;8.690;2024-03-02T12:34:22;98954.75;;;14.98;57.76
78888;BME280;68276;49.326;8.690;2024-03-02T12:36:48;98956.84;;;14.62;58.93
78888;BME280;68276;49.326;8.690;2024-03-02T12:39:16;98954.97;;;14.63;58.63
78888;BME280;68276;49.326;8.690;2024-03-02T12:41:43;98960.97;;;14.81;58.93
78888;BME280;68276;49.326;8.690;2024-03-02T12:44:08;98944.31;;;15.06;58.53
78888;BME280;68276;49.326;8.690;2024-03-02T12:46:34;98950.53;;;15.23;57.90
78888;BME280;68276;49.326;8.690;2024-03-02T12:49:12;98944.19;;;15.51;58.01
78888;BME280;68276;49.326;8.690;2024-03-02T12:51:38;98944.81;;;15.58;56.49
78888;BME280;68276;49.326;8.690;2024-03-02T12:54:09;98939.22;;;15.64;56.50
78888;BME280;68276;49.326;8.690;2024-03-02T12:56:40;98951.75;;;15.70;55.84
78888;BME280;68276;49.326;8.690;2024-03-02T12:59:10;98935.72;;;15.69;55.82
78888;BME280;68276;49.326;8.690;2024-03-02T13:01:56;98939.28;;;15.69;55.42
78888;BME280;68276;49.326;8.690;2024-03-02T13:04:28;98941.25;;;15.74;55.24
78888;BME280;68276;49.326;8.690;2024-03-02T13:06:55;98939.59;;;15.94;54.85